createdAt,value
2018-04-23T00:00:33.162Z,5.27
2018-04-23T00:03:02.437Z,5.93
2018-04-23T00:05:31.749Z,5.40
2018-04-23T00:08:01.120Z,5.27
2018-04-23T00:10:30.536Z,5.10
2018-04-23T00:12:59.811Z,4.80
2018-04-23T00:15:29.846Z,5.87
2018-04-23T00:17:59.126Z,5.70
2018-04-23T00:20:29.187Z,5.37
2018-04-23T00:22:58.958Z,5.70
2018-04-23T00:25:28.346Z,5.70
2018-04-23T00:27:58.393Z,5.30
2018-04-23T00:30:27.751Z,4.40
2018-04-23T00:32:57.008Z,4.93
2018-04-23T00:35:26.295Z,5.07
2018-04-23T00:37:55.560Z,7.93
2018-04-23T00:40:25.578Z,6.43
2018-04-23T00:42:55.615Z,5.53
2018-04-23T00:45:24.989Z,5.30
2018-04-23T00:47:55.780Z,5.40
2018-04-23T00:50:25.040Z,5.57
2018-04-23T00:53:12.857Z,5.50
2018-04-23T00:55:42.147Z,5.90
2018-04-23T00:58:11.462Z,6.03
2018-04-23T01:00:40.731Z,5.97
2018-04-23T01:03:10.079Z,5.63
2018-04-23T01:05:39.337Z,5.40
2018-04-23T01:08:08.765Z,5.97
2018-04-23T01:10:38.813Z,5.50
2018-04-23T01:13:08.102Z,5.93
2018-04-23T01:15:38.165Z,5.60
2018-04-23T01:18:07.426Z,5.50
2018-04-23T01:20:37.541Z,5.50
2018-04-23T01:23:06.826Z,5.57
2018-04-23T01:25:36.868Z,5.00
2018-04-23T01:28:06.142Z,4.80
2018-04-23T01:30:35.422Z,4.90
2018-04-23T01:33:04.695Z,5.73
2018-04-23T01:35:34.076Z,5.23
2018-04-23T01:38:03.392Z,5.60
2018-04-23T01:40:32.654Z,5.40
2018-04-23T01:43:02.689Z,6.90
2018-04-23T01:45:32.723Z,5.60
2018-04-23T01:48:02.006Z,6.10
2018-04-23T01:50:32.030Z,6.47
2018-04-23T01:53:01.405Z,5.63
2018-04-23T01:55:30.685Z,6.30
2018-04-23T01:58:00.007Z,6.57
2018-04-23T02:00:30.105Z,5.30
2018-04-23T02:02:59.365Z,5.07
2018-04-23T02:05:28.773Z,6.97
2018-04-23T02:07:58.045Z,5.50
2018-04-23T02:10:27.350Z,5.40
2018-04-23T02:12:56.859Z,5.63
2018-04-23T02:15:26.162Z,5.50
2018-04-23T02:17:55.561Z,6.03
2018-04-23T02:20:24.825Z,5.43
2018-04-23T02:22:54.167Z,6.20
2018-04-23T02:25:23.442Z,6.23
2018-04-23T02:27:53.489Z,6.53
2018-04-23T02:30:22.780Z,6.20
2018-04-23T02:32:52.055Z,5.60
2018-04-23T02:35:21.318Z,5.40
2018-04-23T02:37:50.651Z,4.93
2018-04-23T02:40:19.877Z,5.10
2018-04-23T02:42:49.214Z,6.10
2018-04-23T02:45:18.461Z,6.50
2018-04-23T02:47:48.522Z,5.80
2018-04-23T02:50:18.034Z,7.00
2018-04-23T02:52:47.310Z,7.83
2018-04-23T02:55:16.575Z,5.90
2018-04-23T02:57:46.622Z,6.17
2018-04-23T03:00:16.033Z,6.20
2018-04-23T03:02:45.521Z,5.40
2018-04-23T03:05:15.767Z,6.53
2018-04-23T03:07:45.054Z,6.10
2018-04-23T03:10:15.085Z,6.30
2018-04-23T03:12:44.358Z,5.90
2018-04-23T03:15:14.409Z,6.40
2018-04-23T03:17:43.677Z,5.87
2018-04-23T03:20:13.730Z,7.10
2018-04-23T03:22:44.561Z,6.43
2018-04-23T03:25:13.850Z,6.57
2018-04-23T03:27:43.264Z,5.90
2018-04-23T03:30:12.556Z,6.33
2018-04-23T03:32:41.921Z,6.17
2018-04-23T03:35:11.978Z,6.13
2018-04-23T03:37:42.203Z,5.57
2018-04-23T03:40:12.117Z,6.27
2018-04-23T03:42:41.517Z,5.80
2018-04-23T03:45:10.817Z,5.77
2018-04-23T03:47:40.075Z,7.00
2018-04-23T03:50:10.962Z,5.80
2018-04-23T03:52:40.256Z,6.00
2018-04-23T03:55:09.833Z,6.17
2018-04-23T03:57:39.914Z,6.20
2018-04-23T04:00:09.902Z,6.40
2018-04-23T04:02:39.197Z,6.53
2018-04-23T04:05:08.507Z,6.13
2018-04-23T04:07:37.906Z,6.27
2018-04-23T04:10:07.260Z,6.23
2018-04-23T04:12:54.187Z,5.53
2018-04-23T04:15:41.729Z,6.23
2018-04-23T04:21:18.341Z,6.10
2018-04-23T04:23:47.649Z,6.27
2018-04-23T04:26:16.936Z,6.43
2018-04-23T04:28:46.194Z,6.70
2018-04-23T04:31:15.466Z,6.70
2018-04-23T04:33:44.780Z,6.00
2018-04-23T04:36:14.053Z,6.17
2018-04-23T04:38:43.321Z,7.07
2018-04-23T04:41:12.659Z,6.10
2018-04-23T04:43:41.983Z,6.40
2018-04-23T04:46:12.081Z,6.80
2018-04-23T04:48:41.442Z,5.60
2018-04-23T04:51:10.765Z,6.80
2018-04-23T04:53:40.020Z,7.63
2018-04-23T04:56:10.080Z,5.53
2018-04-23T04:58:39.478Z,6.20
2018-04-23T05:01:08.765Z,7.10
2018-04-23T05:03:38.048Z,6.60
2018-04-23T05:06:08.077Z,5.83
2018-04-23T05:08:38.162Z,5.90
2018-04-23T05:11:07.598Z,6.40
2018-04-23T05:13:37.680Z,6.70
2018-04-23T05:16:07.119Z,6.20
2018-04-23T05:18:37.154Z,6.23
2018-04-23T05:21:06.546Z,6.73
2018-04-23T05:23:35.859Z,5.50
2018-04-23T05:26:05.874Z,5.70
2018-04-23T05:28:35.298Z,5.70
2018-04-23T05:31:04.601Z,6.57
2018-04-23T05:33:34.424Z,6.63
2018-04-23T05:36:03.760Z,5.80
2018-04-23T05:38:34.700Z,7.17
2018-04-23T05:41:04.818Z,6.07
2018-04-23T05:43:34.298Z,6.10
2018-04-23T05:46:03.621Z,6.20
2018-04-23T05:48:33.733Z,6.50
2018-04-23T05:51:03.008Z,6.13
2018-04-23T05:53:32.388Z,5.67
2018-04-23T05:56:01.905Z,5.73
2018-04-23T05:58:31.793Z,7.80
2018-04-23T06:01:01.112Z,5.07
2018-04-23T06:03:30.491Z,5.70
2018-04-23T06:05:59.833Z,6.40
2018-04-23T06:08:29.960Z,5.57
2018-04-23T06:10:59.336Z,5.40
2018-04-23T06:13:29.554Z,5.40
2018-04-23T06:15:59.003Z,6.30
2018-04-23T06:18:30.628Z,5.67
2018-04-23T06:20:59.989Z,5.87
2018-04-23T06:23:30.038Z,6.20
2018-04-23T06:25:59.426Z,6.07
2018-04-23T06:28:28.693Z,6.30
2018-04-23T06:30:58.733Z,5.00
2018-04-23T06:33:28.017Z,6.50
2018-04-23T06:35:58.062Z,6.20
2018-04-23T06:38:27.340Z,6.23
2018-04-23T06:40:58.004Z,6.33
2018-04-23T06:43:28.046Z,6.27
2018-04-23T06:45:57.316Z,5.70
2018-04-23T06:48:26.602Z,6.00
2018-04-23T06:50:56.028Z,6.13
2018-04-23T06:53:25.427Z,6.00
2018-04-23T06:55:54.767Z,5.17
2018-04-23T06:58:24.176Z,6.57
2018-04-23T07:00:53.474Z,5.07
2018-04-23T07:03:22.793Z,6.60
2018-04-23T07:05:52.067Z,5.80
2018-04-23T07:08:21.361Z,6.17
2018-04-23T07:10:50.630Z,7.00
2018-04-23T07:13:19.997Z,6.47
2018-04-23T07:15:50.133Z,5.97
2018-04-23T07:18:20.201Z,5.87
2018-04-23T07:20:49.474Z,6.17
2018-04-23T07:23:18.763Z,7.27
2018-04-23T07:25:48.031Z,5.37
2018-04-23T07:28:18.107Z,5.50
2018-04-23T07:30:47.391Z,6.10
2018-04-23T07:33:16.653Z,7.03
2018-04-23T07:35:46.847Z,8.00
2018-04-23T07:38:16.110Z,6.57
2018-04-23T07:40:46.182Z,7.43
2018-04-23T07:43:15.427Z,6.47
2018-04-23T07:45:44.740Z,6.43
2018-04-23T07:48:13.997Z,5.87
2018-04-23T07:50:43.399Z,6.40
2018-04-23T07:53:13.450Z,5.73
2018-04-23T07:55:42.762Z,6.43
2018-04-23T07:58:12.081Z,5.70
2018-04-23T08:00:41.353Z,5.77
2018-04-23T08:03:10.842Z,5.00
2018-04-23T08:05:40.918Z,4.77
2018-04-23T08:08:10.215Z,5.10
2018-04-23T08:10:39.492Z,4.87
2018-04-23T08:13:08.816Z,5.00
2018-04-23T08:15:39.115Z,4.63
2018-04-23T08:18:08.405Z,3.90
2018-04-23T08:20:37.815Z,3.90
2018-04-23T08:23:07.211Z,3.57
2018-04-23T08:25:36.570Z,3.43
2018-04-23T08:28:06.021Z,4.00
2018-04-23T08:30:35.565Z,4.20
2018-04-23T08:33:06.280Z,3.30
2018-04-23T08:35:36.742Z,4.73
2018-04-23T08:38:07.671Z,4.50
2018-04-23T08:40:36.999Z,5.63
2018-04-23T08:43:06.480Z,3.90
2018-04-23T08:45:35.742Z,4.77
2018-04-23T08:48:05.132Z,4.77
2018-04-23T08:50:35.048Z,5.03
2018-04-23T08:53:04.333Z,5.07
2018-04-23T08:55:33.959Z,4.23
2018-04-23T08:58:03.435Z,4.90
2018-04-23T09:00:32.852Z,5.10
2018-04-23T09:03:02.314Z,3.73
2018-04-23T09:05:33.401Z,4.90
2018-04-23T09:08:02.814Z,4.97
2018-04-23T09:10:32.113Z,4.43
2018-04-23T09:13:01.566Z,4.30
2018-04-23T09:15:31.010Z,4.50
2018-04-23T09:18:01.081Z,5.67
2018-04-23T09:20:30.356Z,4.67
2018-04-23T09:22:59.619Z,4.03
2018-04-23T09:25:28.895Z,4.30
2018-04-23T09:27:59.678Z,5.57
2018-04-23T09:30:28.941Z,3.87
2018-04-23T09:32:59.096Z,4.00
2018-04-23T09:35:28.841Z,3.70
2018-04-23T09:37:58.217Z,5.33
2018-04-23T09:40:27.488Z,4.50
2018-04-23T09:42:56.789Z,5.93
2018-04-23T09:45:26.067Z,4.30
2018-04-23T09:47:56.244Z,4.47
2018-04-23T09:50:25.643Z,5.23
2018-04-23T09:52:54.972Z,5.27
2018-04-23T09:55:24.318Z,4.93
2018-04-23T09:57:53.599Z,6.03
2018-04-23T10:00:29.185Z,4.93
2018-04-23T10:02:58.437Z,5.67
2018-04-23T10:05:28.495Z,4.90
2018-04-23T10:07:57.748Z,3.77
2018-04-23T10:10:27.794Z,4.20
2018-04-23T10:12:57.138Z,4.17
2018-04-23T10:15:26.497Z,4.40
2018-04-23T10:17:55.765Z,4.33
2018-04-23T10:20:25.038Z,4.70
2018-04-23T10:22:54.357Z,4.93
2018-04-23T10:25:23.647Z,5.80
2018-04-23T10:27:53.001Z,4.83
2018-04-23T10:30:22.532Z,5.70
2018-04-23T10:32:51.848Z,4.87
2018-04-23T10:35:21.896Z,4.43
2018-04-23T10:37:52.081Z,4.27
2018-04-23T10:40:21.345Z,4.50
2018-04-23T10:42:50.639Z,4.43
2018-04-23T10:45:20.008Z,4.27
2018-04-23T10:47:49.209Z,4.03
2018-04-23T10:50:18.468Z,3.73
2018-04-23T10:52:47.924Z,4.43
2018-04-23T10:55:17.976Z,3.97
2018-04-23T10:57:47.245Z,4.47
2018-04-23T11:00:17.378Z,4.60
2018-04-23T11:02:47.455Z,5.23
2018-04-23T11:05:16.736Z,4.60
2018-04-23T11:07:46.016Z,4.43
2018-04-23T11:10:16.044Z,4.77
2018-04-23T11:12:45.307Z,5.27
2018-04-23T11:15:15.344Z,4.40
2018-04-23T11:17:44.910Z,4.07
2018-04-23T11:20:14.201Z,3.90
2018-04-23T11:22:43.491Z,4.23
2018-04-23T11:25:12.761Z,4.43
2018-04-23T11:27:42.089Z,4.93
2018-04-23T11:30:11.367Z,4.30
2018-04-23T11:32:40.939Z,4.30
2018-04-23T11:35:11.010Z,4.37
2018-04-23T11:37:40.345Z,4.90
2018-04-23T11:40:09.647Z,4.40
2018-04-23T11:42:38.934Z,4.43
2018-04-23T11:45:08.256Z,4.00
2018-04-23T11:47:37.625Z,5.30
2018-04-23T11:50:07.709Z,4.40
2018-04-23T11:52:37.056Z,6.77
2018-04-23T11:55:06.597Z,3.87
2018-04-23T11:57:36.627Z,3.60
2018-04-23T12:00:05.908Z,3.97
2018-04-23T12:02:35.949Z,3.57
2018-04-23T12:05:05.222Z,3.40
2018-04-23T12:07:35.303Z,3.00
2018-04-23T12:10:04.565Z,4.03
2018-04-23T12:12:33.859Z,3.37
2018-04-23T12:15:03.908Z,4.07
2018-04-23T12:17:33.181Z,2.93
2018-04-23T12:20:02.490Z,3.90
2018-04-23T12:22:31.779Z,3.43
2018-04-23T12:25:01.125Z,3.30
2018-04-23T12:27:30.480Z,3.23
2018-04-23T12:29:59.775Z,3.17
2018-04-23T12:32:30.027Z,2.93
2018-04-23T12:34:59.363Z,2.73
2018-04-23T12:37:28.736Z,3.17
2018-04-23T12:39:58.051Z,2.90
2018-04-23T12:42:27.332Z,6.60
2018-04-23T12:44:56.591Z,3.10
2018-04-23T12:47:26.638Z,2.50
2018-04-23T12:49:55.900Z,2.60
2018-04-23T12:52:25.920Z,3.00
2018-04-23T12:54:56.024Z,2.57
2018-04-23T12:57:25.289Z,2.77
2018-04-23T12:59:54.564Z,2.50
2018-04-23T13:02:23.839Z,3.10
2018-04-23T13:04:53.875Z,2.83
2018-04-23T13:07:23.145Z,3.00
2018-04-23T13:09:52.506Z,2.60
2018-04-23T13:12:21.867Z,2.93
2018-04-23T13:14:51.187Z,2.43
2018-04-23T13:17:20.617Z,3.13
2018-04-23T13:19:49.928Z,3.50
2018-04-23T13:22:19.220Z,2.20
2018-04-23T13:24:50.024Z,3.03
2018-04-23T13:27:19.294Z,3.40
2018-04-23T13:29:48.773Z,2.97
2018-04-23T13:32:18.184Z,2.40
2018-04-23T13:34:48.242Z,2.00
2018-04-23T13:37:17.652Z,3.10
2018-04-23T13:39:46.915Z,3.00
2018-04-23T13:42:16.201Z,2.37
2018-04-23T13:44:45.450Z,2.23
2018-04-23T13:47:14.726Z,2.30
2018-04-23T13:49:44.781Z,2.27
2018-04-23T13:52:14.846Z,2.70
2018-04-23T13:54:44.130Z,2.30
2018-04-23T13:57:13.425Z,2.67
2018-04-23T13:59:42.668Z,2.50
2018-04-23T14:02:12.724Z,1.97
2018-04-23T14:04:42.020Z,2.70
2018-04-23T14:07:11.277Z,2.43
2018-04-23T14:09:41.322Z,3.20
2018-04-23T14:12:11.405Z,2.63
2018-04-23T14:14:40.668Z,2.50
2018-04-23T14:17:09.934Z,2.40
2018-04-23T14:19:39.261Z,3.57
2018-04-23T14:22:08.668Z,2.10
2018-04-23T14:24:37.976Z,1.80
2018-04-23T14:27:07.342Z,2.03
2018-04-23T14:29:36.639Z,3.37
2018-04-23T14:32:06.665Z,2.47
2018-04-23T14:34:36.774Z,2.80
2018-04-23T14:37:06.082Z,2.97
2018-04-23T14:39:36.154Z,2.33
2018-04-23T14:42:05.409Z,2.33
2018-04-23T14:44:35.573Z,2.80
2018-04-23T14:47:04.855Z,2.40
2018-04-23T14:49:34.127Z,2.43
2018-04-23T14:52:03.397Z,2.27
2018-04-23T14:54:32.662Z,2.43
2018-04-23T14:57:02.711Z,2.27
2018-04-23T14:59:32.079Z,2.07
2018-04-23T15:02:01.409Z,2.20
2018-04-23T15:04:31.522Z,3.67
2018-04-23T15:07:00.835Z,2.53
2018-04-23T15:09:30.117Z,2.00
2018-04-23T15:11:59.534Z,2.70
2018-04-23T15:14:29.578Z,2.93
2018-04-23T15:16:58.956Z,2.77
2018-04-23T15:19:28.216Z,3.00
2018-04-23T15:21:57.500Z,2.90
2018-04-23T15:24:26.931Z,3.13
2018-04-23T15:26:56.325Z,3.03
2018-04-23T15:29:25.608Z,3.13
2018-04-23T15:31:54.886Z,4.60
2018-04-23T15:34:25.031Z,3.23
2018-04-23T15:36:54.393Z,2.47
2018-04-23T15:39:23.729Z,3.00
2018-04-23T15:41:54.024Z,2.67
2018-04-23T15:44:24.088Z,2.50
2018-04-23T15:46:53.424Z,2.70
2018-04-23T15:49:22.854Z,4.40
2018-04-23T15:51:55.416Z,4.40
2018-04-23T15:54:26.317Z,2.60
2018-04-23T15:56:55.805Z,2.47
2018-04-23T15:59:25.147Z,2.50
2018-04-23T16:01:54.520Z,2.77
2018-04-23T16:04:23.892Z,2.67
2018-04-23T16:06:53.159Z,2.40
2018-04-23T16:09:23.252Z,1.80
2018-04-23T16:11:52.567Z,2.10
2018-04-23T16:14:21.860Z,2.80
2018-04-23T16:16:51.216Z,3.27
2018-04-23T16:19:20.524Z,2.50
2018-04-23T16:21:49.797Z,1.90
2018-04-23T16:24:20.211Z,2.30
2018-04-23T16:26:50.263Z,3.07
2018-04-23T16:29:19.578Z,6.03
2018-04-23T16:31:48.850Z,3.30
2018-04-23T16:34:22.008Z,2.20
2018-04-23T16:36:52.163Z,4.70
2018-04-23T16:39:22.412Z,2.67
2018-04-23T16:41:51.859Z,2.53
2018-04-23T16:44:27.165Z,2.30
2018-04-23T16:46:50.401Z,2.50
2018-04-23T16:49:19.792Z,1.80
2018-04-23T16:51:49.020Z,1.93
2018-04-23T16:54:18.498Z,2.60
2018-04-23T16:56:48.008Z,2.27
2018-04-23T16:59:17.279Z,2.50
2018-04-23T17:01:46.594Z,2.77
2018-04-23T17:04:15.990Z,2.20
2018-04-23T17:06:46.079Z,3.43
2018-04-23T17:09:15.329Z,2.33
2018-04-23T17:11:44.668Z,2.93
2018-04-23T17:14:14.040Z,2.13
2018-04-23T17:16:44.861Z,3.50
2018-04-23T17:19:14.189Z,3.10
2018-04-23T17:21:43.584Z,3.17
2018-04-23T17:24:12.865Z,2.30
2018-04-23T17:26:42.178Z,2.80
2018-04-23T17:29:11.544Z,2.50
2018-04-23T17:31:40.828Z,3.60
2018-04-23T17:34:12.213Z,2.47
2018-04-23T17:36:42.226Z,2.80
2018-04-23T17:39:16.015Z,2.27
2018-04-23T17:41:46.183Z,2.57
2018-04-23T17:44:15.531Z,2.80
2018-04-23T17:46:45.123Z,2.57
2018-04-23T17:49:15.345Z,2.30
2018-04-23T17:51:44.614Z,2.17
2018-04-23T17:54:13.910Z,2.30
2018-04-23T17:56:43.417Z,2.90
2018-04-23T17:59:12.858Z,2.90
2018-04-23T18:01:43.708Z,2.50
2018-04-23T18:04:13.014Z,2.33
2018-04-23T18:06:42.498Z,2.53
2018-04-23T18:09:11.786Z,2.43
2018-04-23T18:11:41.076Z,2.90
2018-04-23T18:14:10.343Z,2.23
2018-04-23T18:16:40.520Z,2.30
2018-04-23T18:19:09.785Z,2.80
2018-04-23T18:21:39.049Z,2.77
2018-04-23T18:24:08.350Z,2.10
2018-04-23T18:26:38.377Z,3.10
2018-04-23T18:29:07.775Z,2.40
2018-04-23T18:31:37.885Z,2.40
2018-04-23T18:34:07.995Z,2.77
2018-04-23T18:36:38.187Z,3.00
2018-04-23T18:39:08.565Z,2.03
2018-04-23T18:41:38.536Z,3.10
2018-04-23T18:44:07.789Z,2.50
2018-04-23T18:46:39.249Z,3.57
2018-04-23T18:49:08.655Z,3.10
2018-04-23T18:51:37.903Z,2.83
2018-04-23T18:54:07.355Z,2.73
2018-04-23T18:56:37.565Z,2.53
2018-04-23T18:59:07.612Z,2.40
2018-04-23T19:01:38.115Z,3.20
2018-04-23T19:04:07.489Z,2.80
2018-04-23T19:06:37.542Z,3.23
2018-04-23T19:09:06.860Z,2.27
2018-04-23T19:11:36.126Z,2.43
2018-04-23T19:14:05.565Z,3.13
2018-04-23T19:16:35.863Z,3.00
2018-04-23T19:19:05.157Z,2.80
2018-04-23T19:21:35.242Z,2.90
2018-04-23T19:24:04.654Z,3.20
2018-04-23T19:26:34.106Z,3.77
2018-04-23T19:29:03.505Z,2.50
2018-04-23T19:31:33.029Z,2.80
2018-04-23T19:34:02.294Z,2.40
2018-04-23T19:36:31.603Z,3.10
2018-04-23T19:39:00.993Z,3.40
2018-04-23T19:41:31.165Z,2.50
2018-04-23T19:44:00.464Z,2.33
2018-04-23T19:46:29.736Z,2.60
2018-04-23T19:48:59.039Z,2.10
2018-04-23T19:51:28.377Z,2.47
2018-04-23T19:53:57.686Z,2.97
2018-04-23T19:56:28.496Z,3.50
2018-04-23T19:58:57.756Z,3.13
2018-04-23T20:01:27.921Z,3.20
2018-04-23T20:03:57.234Z,2.20
2018-04-23T20:06:26.650Z,2.10
2018-04-23T20:08:56.757Z,2.80
2018-04-23T20:11:26.169Z,3.10
2018-04-23T20:13:55.492Z,2.57
2018-04-23T20:16:25.651Z,2.60
2018-04-23T20:18:55.142Z,3.30
2018-04-23T20:21:24.544Z,3.33
2018-04-23T20:23:53.932Z,3.00
2018-04-23T20:26:25.193Z,2.80
2018-04-23T20:28:54.501Z,3.47
2018-04-23T20:31:23.788Z,2.60
2018-04-23T20:33:53.102Z,2.93
2018-04-23T20:36:22.504Z,2.53
2018-04-23T20:38:52.709Z,3.77
2018-04-23T20:41:23.110Z,3.30
2018-04-23T20:43:53.350Z,2.37
2018-04-23T20:46:23.664Z,3.40
2018-04-23T20:48:54.378Z,2.53
2018-04-23T20:51:24.694Z,2.63
2018-04-23T20:54:03.251Z,3.03
2018-04-23T20:56:33.775Z,2.70
2018-04-23T20:59:03.082Z,2.80
2018-04-23T21:01:33.109Z,2.80
2018-04-23T21:04:02.632Z,2.80
2018-04-23T21:06:32.093Z,3.37
2018-04-23T21:09:02.146Z,2.77
2018-04-23T21:11:31.489Z,2.93
2018-04-23T21:14:00.750Z,3.03
2018-04-23T21:16:30.051Z,3.63
2018-04-23T21:18:59.503Z,3.43
2018-04-23T21:21:28.863Z,3.33
2018-04-23T21:23:58.169Z,3.30
2018-04-23T21:26:27.445Z,3.37
2018-04-23T21:28:56.986Z,3.20
2018-04-23T21:34:01.896Z,3.30
2018-04-23T21:36:31.131Z,3.13
2018-04-23T21:39:00.451Z,2.93
2018-04-23T21:41:29.713Z,3.60
2018-04-23T21:43:58.981Z,2.73
2018-04-23T21:46:29.027Z,2.60
2018-04-23T21:48:58.291Z,3.37
2018-04-23T21:51:28.339Z,3.10
2018-04-23T21:53:57.630Z,2.63
2018-04-23T21:56:26.994Z,3.07
2018-04-23T21:58:56.337Z,3.90
2018-04-23T22:01:25.592Z,3.40
2018-04-23T22:03:55.653Z,2.60
2018-04-23T22:06:24.917Z,3.27
2018-04-23T22:08:54.219Z,3.60
2018-04-23T22:11:23.655Z,2.90
2018-04-23T22:13:52.849Z,2.60
2018-04-23T22:16:22.166Z,3.40
2018-04-23T22:18:52.230Z,3.10
2018-04-23T22:21:21.525Z,3.00
2018-04-23T22:23:50.803Z,3.00
2018-04-23T22:26:20.039Z,2.90
2018-04-23T22:28:49.366Z,3.20
2018-04-23T22:31:18.650Z,3.57
2018-04-23T22:33:48.736Z,2.77
2018-04-23T22:36:17.971Z,3.60
2018-04-23T22:38:49.281Z,3.13
2018-04-23T22:41:18.545Z,3.07
2018-04-23T22:43:47.861Z,3.97
2018-04-23T22:46:17.127Z,3.70
2018-04-23T22:48:46.429Z,2.70
2018-04-23T22:51:15.716Z,2.83
2018-04-23T22:53:45.776Z,3.47
2018-04-23T22:56:15.085Z,3.30
2018-04-23T22:58:44.897Z,3.47
2018-04-23T23:01:14.242Z,3.03
2018-04-23T23:03:43.501Z,3.30
2018-04-23T23:06:12.789Z,3.77
2018-04-23T23:08:42.078Z,3.17
2018-04-23T23:11:11.344Z,3.90
2018-04-23T23:13:41.368Z,3.30
2018-04-23T23:16:11.415Z,3.50
2018-04-23T23:18:40.733Z,3.13
2018-04-23T23:21:09.989Z,3.87
2018-04-23T23:23:40.011Z,3.10
2018-04-23T23:26:09.417Z,3.57
2018-04-23T23:28:38.689Z,4.03
2018-04-23T23:31:08.011Z,3.87
2018-04-23T23:33:38.201Z,2.90
2018-04-23T23:36:07.485Z,3.60
2018-04-23T23:38:36.740Z,3.30
2018-04-23T23:41:06.025Z,3.40
2018-04-23T23:43:36.073Z,3.10
2018-04-23T23:46:05.343Z,3.40
2018-04-23T23:48:35.374Z,3.30
2018-04-23T23:51:05.418Z,3.30
2018-04-23T23:53:34.676Z,3.70
2018-04-23T23:56:03.943Z,3.37
2018-04-23T23:58:33.193Z,3.03
